Flight Track Log - Related Links

Times and Time Zones

All times are in EDT time to prevent confusion due to time zone crossing. See the CPZ5746 flight status page for this flight to view local times or setup timezone preferences in your user account.

Time Position Orientation Groundspeed Altitude Reporting Facility
EDT Latitude Longitude Course Direction KTS MPH feet Rate Location/Type
Wed 05:17:21 PM 36.1167 -86.6833 North 139 160 1,300  Level Nashville TRACON
Wed 05:17:39 PM 36.1000 -86.7000 219° Southwest 140 161 1,900 1,462 Climbing Nashville TRACON
Wed 05:18:39 PM 36.0833 -86.7500 248° West 199 229 3,200 1,800 Climbing Nashville TRACON
Wed 05:19:39 PM 36.0833 -86.8333 270° West 265 305 5,500 2,684 Climbing Nashville TRACON
Wed 05:20:00 PM 36.5354 -86.7213 349° North  Level FlightAware Approximate
Wed 05:20:33 PM 36.1425 -86.8564 343° North 300 345 8,300  Level Memphis Center
Wed 05:21:00 PM 36.6399 -86.7333 North  Level FlightAware Approximate
Wed 05:21:33 PM 36.2231 -86.8350 12° North 289 333 11,200  Level Memphis Center
Wed 05:22:00 PM 36.7453 -86.7333 North  Level FlightAware Approximate
Wed 05:22:33 PM 36.3078 -86.8081 14° North 326 375 13,100  Level Memphis Center
Wed 05:23:33 PM 36.4031 -86.7858 11° North 342 394 14,600 1,500 Climbing Memphis Center
Wed 05:24:33 PM 36.5044 -86.7583 12° North 356 410 16,100 1,750 Climbing Memphis Center
Wed 05:25:33 PM 36.6100 -86.7353 10° North 374 430 18,100 1,900 Climbing Memphis Center
Wed 05:26:33 PM 36.7144 -86.7411 357° North 369 425 19,900 1,950 Climbing Memphis Center
Wed 05:27:33 PM 36.8225 -86.7311 North 383 441 22,000 1,600 Climbing Memphis Center
Wed 05:28:33 PM 36.9319 -86.6922 16° North 390 449 23,100 1,050 Climbing Memphis Center
Wed 05:29:33 PM 37.0472 -86.6506 16° North 409 471 24,100 934 Climbing Memphis Center
Wed 05:32:00 PM 37.1624 -86.6070 15° North  Level FlightAware Approximate
Wed 05:32:50 PM 37.4356 -86.5128 15° North 458 527 27,100  Level Indianapolis Center
Wed 05:33:52 PM 37.5600 -86.4683 16° North 460 529 27,000 -532 Descending Indianapolis Center
Wed 05:34:54 PM 37.6778 -86.4250 16° North 442 509 26,000 -968 Descending Indianapolis Center
Wed 05:35:56 PM 37.7956 -86.3839 15° North 434 499 25,000 -484 Descending Indianapolis Center
Wed 05:36:58 PM 37.9264 -86.3372 16° North 458 527 25,000  Level Indianapolis Center
Wed 05:38:00 PM 38.0503 -86.2936 15° North 461 531 25,000  Level Indianapolis Center
Wed 05:39:02 PM 38.1978 -86.2397 16° North 460 529 25,000  Level Indianapolis Center
Wed 05:40:04 PM 38.3208 -86.1947 16° North 460 529 25,000  Level Indianapolis Center
Wed 05:41:06 PM 38.4436 -86.1503 16° North 461 531 25,000  Level Indianapolis Center
Wed 05:42:08 PM 38.5656 -86.1064 16° North 457 526 25,000  Level Indianapolis Center
Wed 05:43:10 PM 38.6869 -86.0617 16° North 455 524 25,000  Level Indianapolis Center
Wed 05:44:12 PM 38.8064 -86.0197 15° North 446 513 25,000  Level Indianapolis Center
Wed 05:45:14 PM 38.9342 -86.0047 North 439 505 25,000  Level Indianapolis Center
Wed 05:46:16 PM 39.0572 -85.9894 North 445 512 25,000  Level Indianapolis Center
Wed 05:47:19 PM 39.2044 -85.9694 North 445 512 25,000  Level Indianapolis Center
Wed 05:48:21 PM 39.3264 -85.9544 North 444 511 25,000  Level Indianapolis Center
Wed 05:49:23 PM 39.4458 -85.9147 14° North 451 519 25,000  Level Indianapolis Center
Wed 05:50:25 PM 39.5614 -85.8600 20° North 448 516 25,000  Level Indianapolis Center
Wed 05:51:27 PM 39.6928 -85.7992 20° North 421 484 25,000  Level Indianapolis Center
Wed 05:52:29 PM 39.7950 -85.7519 20° North 396 456 25,000  Level Indianapolis Center
Wed 05:53:31 PM 39.8992 -85.7042 19° North 400 460 25,000  Level Indianapolis Center
Wed 05:54:33 PM 40.0028 -85.6550 20° North 399 459 25,000  Level Indianapolis Center
Wed 05:55:35 PM 40.1067 -85.6061 20° North 400 460 25,000  Level Indianapolis Center
Wed 05:56:09 PM 40.1692 -85.5756 20° North 399 459 25,000  Level Chicago Center
Wed 05:57:11 PM 40.2708 -85.5267 20° North 393 452 25,000  Level Chicago Center
Wed 05:58:13 PM 40.4064 -85.4622 20° North 432 497 25,000 -484 Level Chicago Center
Wed 05:59:15 PM 40.5233 -85.4064 20° North 447 514 24,000 -484 Descending Chicago Center
Wed 06:00:17 PM 40.6389 -85.3519 20° North 444 511 24,000 -48 Level Chicago Center
Wed 06:01:19 PM 40.7478 -85.2969 21° North 448 516 23,900 -629 Descending Chicago Center
Wed 06:02:21 PM 40.8867 -85.2289 20° North 447 514 22,700 -1,065 Descending Chicago Center
Wed 06:03:23 PM 40.9967 -85.1658 23° Northeast 438 504 21,700 -823 Descending Chicago Center
Wed 06:04:25 PM 41.0917 -85.0667 38° Northeast 437 503 21,000 -339 Descending Chicago Center
Wed 06:05:27 PM 41.1856 -84.9650 39° Northeast 438 504 21,000  Level Chicago Center
Wed 06:06:29 PM 41.2797 -84.8642 39° Northeast 439 505 21,000  Level Chicago Center
Wed 06:07:32 PM 41.3919 -84.7433 39° Northeast 437 503 21,000 -672 Level Chicago Center
Wed 06:08:34 PM 41.4847 -84.6433 39° Northeast 434 499 19,600 -1,482 Descending Chicago Center
Wed 06:08:57 PM 41.5228 -84.5911 46° Northeast 435 501 18,900 -1,807 Descending Cleveland Center
Wed 06:09:57 PM 41.5958 -84.4681 52° Northeast 427 491 17,100 -1,941 Descending Cleveland Center
Wed 06:10:39 PM 41.6428 -84.3736 56° Northeast 429 494 15,600 -2,149 Descending Cleveland Center
Wed 06:11:04 PM 41.6739 -84.3225 51° Northeast 417 480 14,700 -1,976 Descending Cleveland Center
Wed 06:12:04 PM 41.7403 -84.1983 54° Northeast 409 471 12,800 -1,434 Descending Cleveland Center
Wed 06:12:57 PM 41.7933 -84.0983 55° Northeast 410 472 12,000 -425 Descending Cleveland Center
Wed 06:13:57 PM 41.8486 -83.9953 54° Northeast 377 434 12,000  Level Cleveland Center
Wed 06:15:03 PM 41.9144 -83.8872 51° Northeast 334 384 12,000  Level Cleveland Center
Wed 06:15:57 PM 41.9606 -83.8058 53° Northeast 330 380 12,000  Level Cleveland Center
Wed 06:16:57 PM 42.0106 -83.7300 48° Northeast 299 344 12,000  Level Cleveland Center
Wed 06:17:57 PM 42.0625 -83.6569 46° Northeast 276 318 12,000  Level Cleveland Center
Wed 06:18:13 PM 42.0797 -83.6356 43° Northeast 272 313 12,000  Level Cleveland Center
Wed 06:18:57 PM 42.1203 -83.6011 32° Northeast 260 299 12,000  Level Cleveland Center
Wed 06:19:57 PM 42.1842 -83.5536 29° Northeast 255 293 12,000 -541 Level Cleveland Center
Wed 06:21:10 PM 42.2606 -83.5011 27° Northeast 247 284 10,800 -1,022 Descending Cleveland Center
Wed 06:22:12 PM 42.3158 -83.4586 30° Northeast 223 257 9,700 -1,366 Descending Cleveland Center
Wed 06:23:13 PM 42.3814 -83.4194 24° Northeast 231 266 8,000 -1,426 Descending Cleveland Center
Wed 06:24:14 PM 42.4386 -83.3828 25° Northeast 224 258 6,800 -1,377 Descending Cleveland Center
Wed 06:25:15 PM 42.4589 -83.3161 68° East 234 269 5,200 -1,024 Descending Cleveland Center
Wed 06:26:17 PM 42.4206 -83.2608 133° Southeast 182 209 4,700 -484 Descending Cleveland Center

Login

Don't have an account? Register now (free) for customized features, flight alerts, and more!